createdAt,value
2023-01-17T00:02:48.580Z,3.58
2023-01-17T00:06:09.900Z,3.59
2023-01-17T00:09:33.698Z,3.61
2023-01-17T00:12:36.768Z,3.67
2023-01-17T00:15:40.103Z,3.66
2023-01-17T00:19:02.994Z,3.65
2023-01-17T00:22:38.590Z,3.69
2023-01-17T00:26:00.027Z,3.76
2023-01-17T00:29:02.745Z,3.80
2023-01-17T00:32:07.607Z,3.85
2023-01-17T00:35:10.279Z,3.88
2023-01-17T00:38:18.961Z,3.84
2023-01-17T00:41:21.667Z,3.84
2023-01-17T00:44:43.361Z,3.83
2023-01-17T00:48:05.633Z,3.84
2023-01-17T00:51:27.017Z,3.85
2023-01-17T00:54:48.607Z,3.86
2023-01-17T00:58:12.225Z,3.88
2023-01-17T01:01:33.534Z,3.88
2023-01-17T01:04:57.217Z,3.86
2023-01-17T01:08:19.142Z,3.84
2023-01-17T01:11:40.724Z,3.85
2023-01-17T01:15:02.125Z,3.85
2023-01-17T01:18:28.016Z,3.84
2023-01-17T01:21:49.621Z,3.84
2023-01-17T01:25:10.858Z,3.87
2023-01-17T01:28:33.520Z,3.86
2023-01-17T01:31:55.015Z,3.85
2023-01-17T01:38:14.416Z,3.86
2023-01-17T01:41:20.340Z,3.89
2023-01-17T01:44:48.971Z,3.90
2023-01-17T01:47:56.634Z,3.91
2023-01-17T01:51:01.441Z,3.91
2023-01-17T01:54:16.629Z,3.91
2023-01-17T01:57:24.142Z,3.89
2023-01-17T02:00:30.775Z,3.89
2023-01-17T02:03:35.072Z,3.88
2023-01-17T02:06:42.044Z,3.88
2023-01-17T02:09:45.249Z,3.88
2023-01-17T02:12:49.453Z,3.91
2023-01-17T02:16:13.876Z,3.93
2023-01-17T02:19:48.263Z,3.93
2023-01-17T02:23:12.616Z,3.93
2023-01-17T02:26:44.785Z,3.90
2023-01-17T02:30:25.144Z,3.90
2023-01-17T02:33:39.411Z,3.86
2023-01-17T02:36:48.510Z,3.84
2023-01-17T02:40:05.130Z,3.86
2023-01-17T02:43:13.849Z,3.85
2023-01-17T02:46:16.710Z,3.85
2023-01-17T02:49:22.231Z,3.88
2023-01-17T02:52:55.795Z,3.90
2023-01-17T02:55:58.551Z,3.89
2023-01-17T02:59:54.077Z,3.89
2023-01-17T03:03:27.144Z,3.86
2023-01-17T03:06:38.857Z,3.85
2023-01-17T03:09:43.936Z,3.84
2023-01-17T03:12:47.180Z,3.84
2023-01-17T03:15:50.444Z,3.85
2023-01-17T03:18:54.000Z,3.83
2023-01-17T03:21:57.290Z,3.83
2023-01-17T03:25:00.046Z,3.82
2023-01-17T03:28:02.783Z,3.79
2023-01-17T03:31:05.977Z,3.78
2023-01-17T03:34:09.431Z,3.77
2023-01-17T03:37:12.311Z,3.75
2023-01-17T03:40:15.305Z,3.71
2023-01-17T03:43:20.214Z,3.69
2023-01-17T03:46:25.842Z,3.64
2023-01-17T03:49:29.230Z,3.61
2023-01-17T03:52:32.724Z,3.60
2023-01-17T03:55:35.489Z,3.61
2023-01-17T03:58:38.501Z,3.61
2023-01-17T04:01:42.336Z,3.63
2023-01-17T04:04:45.281Z,3.62
2023-01-17T04:07:47.991Z,3.64
2023-01-17T04:10:50.875Z,3.64
2023-01-17T04:13:54.234Z,3.62
2023-01-17T04:16:57.590Z,3.62
2023-01-17T04:20:03.089Z,3.61
2023-01-17T04:23:06.642Z,3.61
2023-01-17T04:26:12.549Z,3.59
2023-01-17T04:29:15.275Z,3.60
2023-01-17T04:32:18.536Z,3.57
2023-01-17T04:35:21.939Z,3.54
2023-01-17T04:38:26.960Z,3.55
2023-01-17T04:41:29.852Z,3.52
2023-01-17T04:44:32.612Z,3.52
2023-01-17T04:47:35.351Z,3.50
2023-01-17T04:50:38.824Z,3.49
2023-01-17T04:53:41.630Z,3.48
2023-01-17T04:56:44.792Z,3.49
2023-01-17T04:59:47.973Z,3.48
2023-01-17T05:02:54.721Z,3.45
2023-01-17T05:06:00.515Z,3.42
2023-01-17T05:09:03.359Z,3.38
2023-01-17T05:12:06.216Z,3.33
2023-01-17T05:15:11.593Z,3.28
2023-01-17T05:18:16.977Z,3.25
2023-01-17T05:21:21.722Z,3.19
2023-01-17T05:24:26.094Z,3.15
2023-01-17T05:27:29.637Z,3.22
2023-01-17T05:30:33.157Z,3.30
2023-01-17T05:33:35.926Z,3.35
2023-01-17T05:36:38.627Z,3.31
2023-01-17T05:39:41.372Z,3.23
2023-01-17T05:42:50.957Z,3.21
2023-01-17T05:45:54.120Z,3.18
2023-01-17T05:48:56.831Z,3.12
2023-01-17T05:52:01.814Z,3.07
2023-01-17T05:55:06.755Z,3.01
2023-01-17T05:58:15.352Z,2.96
2023-01-17T06:01:19.805Z,2.93
2023-01-17T06:04:22.722Z,2.91
2023-01-17T06:07:25.585Z,2.91
2023-01-17T06:10:29.561Z,2.89
2023-01-17T06:13:33.991Z,2.83
2023-01-17T06:16:36.881Z,2.80
2023-01-17T06:19:41.968Z,2.77
2023-01-17T06:22:44.861Z,2.73
2023-01-17T06:25:50.065Z,2.70
2023-01-17T06:28:52.790Z,2.65
2023-01-17T06:31:55.509Z,2.60
2023-01-17T06:34:58.397Z,2.57
2023-01-17T06:38:03.190Z,2.55
2023-01-17T06:41:06.303Z,2.52
2023-01-17T06:44:10.203Z,2.47
2023-01-17T06:47:12.943Z,2.45
2023-01-17T06:50:16.369Z,2.46
2023-01-17T06:53:19.096Z,2.47
2023-01-17T06:56:22.026Z,2.46
2023-01-17T06:59:24.801Z,2.48
2023-01-17T07:02:27.504Z,2.51
2023-01-17T07:05:30.486Z,2.50
2023-01-17T07:08:33.197Z,2.48
2023-01-17T07:11:35.980Z,2.48
2023-01-17T07:14:38.688Z,2.48
2023-01-17T07:17:43.357Z,2.48
2023-01-17T07:20:46.935Z,2.48
2023-01-17T07:23:49.697Z,2.49
2023-01-17T07:26:53.328Z,2.49
2023-01-17T07:29:57.158Z,2.47
2023-01-17T07:33:01.948Z,2.52
2023-01-17T07:36:09.448Z,2.51
2023-01-17T07:39:12.318Z,2.54
2023-01-17T07:42:17.678Z,2.55
2023-01-17T07:45:21.991Z,2.59
2023-01-17T07:48:25.272Z,2.64
2023-01-17T07:51:28.344Z,2.66
2023-01-17T07:54:31.214Z,2.70
2023-01-17T07:57:34.078Z,2.76
2023-01-17T08:00:39.285Z,2.81
2023-01-17T08:03:42.411Z,2.86
2023-01-17T08:06:53.200Z,2.89
2023-01-17T08:09:55.998Z,2.92
2023-01-17T08:12:58.818Z,2.98
2023-01-17T08:16:03.443Z,3.03
2023-01-17T08:19:13.753Z,3.07
2023-01-17T08:22:16.760Z,3.12
2023-01-17T08:25:19.641Z,3.16
2023-01-17T08:28:22.380Z,3.21
2023-01-17T08:31:25.553Z,3.26
2023-01-17T08:34:28.382Z,3.31
2023-01-17T08:37:31.166Z,3.35
2023-01-17T08:40:33.897Z,3.40
2023-01-17T08:43:36.804Z,3.45
2023-01-17T08:46:42.974Z,3.48
2023-01-17T08:49:45.834Z,3.53
2023-01-17T08:52:49.013Z,3.57
2023-01-17T08:55:58.860Z,3.63
2023-01-17T08:59:03.118Z,3.68
2023-01-17T09:02:16.402Z,3.73
2023-01-17T09:05:19.288Z,3.79
2023-01-17T09:08:21.983Z,3.84
2023-01-17T09:11:24.850Z,3.87
2023-01-17T09:14:27.616Z,3.92
2023-01-17T09:17:30.327Z,4.00
2023-01-17T09:20:33.844Z,4.06
2023-01-17T09:23:36.734Z,4.12
2023-01-17T09:26:39.531Z,4.18
2023-01-17T09:29:42.284Z,4.26
2023-01-17T09:32:52.390Z,4.32
2023-01-17T09:35:55.191Z,4.38
2023-01-17T09:38:58.939Z,4.41
2023-01-17T09:42:22.654Z,4.45
2023-01-17T09:45:30.509Z,4.46
2023-01-17T09:48:42.012Z,4.43
2023-01-17T09:51:47.805Z,4.42
2023-01-17T09:54:51.654Z,4.44
2023-01-17T09:58:12.026Z,4.52
2023-01-17T10:01:27.399Z,4.58
2023-01-17T10:04:53.502Z,4.57
2023-01-17T10:08:14.314Z,4.58
2023-01-17T10:11:41.470Z,4.56
2023-01-17T10:15:07.353Z,4.55
2023-01-17T10:18:40.162Z,4.54
2023-01-17T10:22:23.247Z,4.51
2023-01-17T10:25:55.805Z,4.48
2023-01-17T10:29:02.714Z,4.50
2023-01-17T10:32:06.127Z,4.51
2023-01-17T10:35:21.491Z,4.54
2023-01-17T10:38:29.955Z,4.85
2023-01-17T10:41:40.555Z,4.96
2023-01-17T10:45:05.756Z,4.98
2023-01-17T10:48:18.662Z,4.94
2023-01-17T10:51:52.293Z,4.97
2023-01-17T10:55:05.097Z,4.97
2023-01-17T10:58:12.481Z,5.01
2023-01-17T11:01:20.927Z,5.07
2023-01-17T11:04:35.065Z,5.09
2023-01-17T11:07:40.012Z,5.14
2023-01-17T11:10:54.296Z,5.20
2023-01-17T11:14:04.635Z,5.25
2023-01-17T11:17:07.601Z,5.29
2023-01-17T11:20:36.991Z,5.33
2023-01-17T11:23:46.376Z,5.39
2023-01-17T11:26:49.518Z,5.41
2023-01-17T11:30:19.862Z,5.45
2023-01-17T11:33:50.613Z,5.57
2023-01-17T11:37:17.186Z,5.70
2023-01-17T11:40:28.924Z,5.83
2023-01-17T11:43:31.687Z,5.88
2023-01-17T11:46:34.464Z,5.92
2023-01-17T11:49:38.580Z,6.00
2023-01-17T11:52:41.761Z,6.10
2023-01-17T11:56:08.586Z,6.16
2023-01-17T11:59:22.084Z,6.23
2023-01-17T12:02:36.881Z,6.29
2023-01-17T12:05:48.390Z,6.33
2023-01-17T12:09:41.123Z,6.34
2023-01-17T12:13:18.103Z,6.42
2023-01-17T12:16:43.917Z,6.48
2023-01-17T12:20:05.496Z,6.43
2023-01-17T12:24:07.006Z,6.37
2023-01-17T12:27:25.264Z,6.38
2023-01-17T12:31:02.657Z,6.30
2023-01-17T12:34:24.489Z,6.24
2023-01-17T12:37:37.703Z,6.26
2023-01-17T12:40:50.155Z,6.27
2023-01-17T12:44:01.687Z,6.22
2023-01-17T12:47:07.407Z,6.17
2023-01-17T12:50:22.668Z,6.12
2023-01-17T12:53:45.575Z,6.09
2023-01-17T12:56:59.121Z,6.07
2023-01-17T13:00:12.373Z,6.05
2023-01-17T13:03:36.315Z,6.07
2023-01-17T13:06:48.414Z,6.06
2023-01-17T13:10:05.551Z,6.01
2023-01-17T13:13:32.758Z,5.99
2023-01-17T13:17:05.123Z,5.98
2023-01-17T13:20:42.394Z,5.95
2023-01-17T13:23:55.913Z,5.92
2023-01-17T13:27:01.703Z,5.88
2023-01-17T13:30:26.528Z,5.83
2023-01-17T13:33:38.729Z,5.80
2023-01-17T13:36:50.666Z,5.76
2023-01-17T13:40:19.129Z,5.74
2023-01-17T13:44:05.720Z,5.71
2023-01-17T13:47:37.335Z,5.73
2023-01-17T13:50:58.693Z,5.70
2023-01-17T13:54:01.584Z,5.65
2023-01-17T13:57:43.889Z,5.60
2023-01-17T14:00:50.419Z,5.52
2023-01-17T14:03:56.038Z,5.43
2023-01-17T14:07:01.225Z,5.38
2023-01-17T14:10:29.657Z,5.41
2023-01-17T14:13:38.608Z,5.44
2023-01-17T14:16:41.560Z,5.45
2023-01-17T14:19:50.260Z,5.51
2023-01-17T14:22:56.583Z,5.58
2023-01-17T14:26:12.302Z,5.61
2023-01-17T14:29:45.661Z,5.57
2023-01-17T14:33:04.761Z,5.50
2023-01-17T14:36:24.756Z,5.42
2023-01-17T14:39:27.478Z,5.34
2023-01-17T14:42:33.195Z,5.24
2023-01-17T14:45:36.989Z,5.14
2023-01-17T14:48:40.993Z,5.04
2023-01-17T14:51:47.741Z,4.94
2023-01-17T14:54:52.584Z,4.96
2023-01-17T14:57:56.839Z,5.00
2023-01-17T15:01:10.073Z,5.08
2023-01-17T15:04:26.574Z,5.17
2023-01-17T15:07:32.346Z,5.14
2023-01-17T15:10:35.531Z,5.08
2023-01-17T15:13:45.285Z,5.00
2023-01-17T15:16:51.918Z,4.89
2023-01-17T15:20:05.752Z,4.74
2023-01-17T15:23:23.424Z,4.59
2023-01-17T15:26:39.029Z,4.44
2023-01-17T15:29:43.198Z,4.31
2023-01-17T15:32:51.218Z,4.19
2023-01-17T15:36:04.978Z,4.09
2023-01-17T15:39:30.386Z,4.11
2023-01-17T15:42:43.699Z,4.21
2023-01-17T15:45:57.086Z,4.25
2023-01-17T15:49:08.483Z,4.32
2023-01-17T15:52:16.514Z,4.35
2023-01-17T15:55:23.271Z,4.28
2023-01-17T15:58:28.761Z,4.20
2023-01-17T16:01:31.624Z,4.13
2023-01-17T16:04:37.345Z,4.04
2023-01-17T16:07:40.103Z,3.94
2023-01-17T16:10:44.521Z,3.83
2023-01-17T16:13:48.575Z,3.71
2023-01-17T16:16:52.924Z,3.61
2023-01-17T16:19:55.913Z,3.63
2023-01-17T16:23:00.394Z,3.70
2023-01-17T16:26:05.295Z,3.75
2023-01-17T16:29:08.274Z,3.84
2023-01-17T16:32:15.572Z,3.86
2023-01-17T16:35:27.877Z,3.82
2023-01-17T16:38:32.266Z,3.75
2023-01-17T16:41:35.042Z,3.68
2023-01-17T16:44:39.134Z,3.58
2023-01-17T16:47:43.827Z,3.46
2023-01-17T16:50:52.266Z,3.35
2023-01-17T16:53:55.161Z,3.27
2023-01-17T16:56:57.962Z,3.20
2023-01-17T17:00:00.978Z,3.12
2023-01-17T17:03:04.102Z,3.20
2023-01-17T17:06:07.389Z,3.30
2023-01-17T17:09:10.187Z,3.41
2023-01-17T17:12:14.511Z,3.49
2023-01-17T17:15:17.464Z,3.49
2023-01-17T17:18:21.500Z,3.45
2023-01-17T17:21:26.046Z,3.39
2023-01-17T17:24:28.898Z,3.34
2023-01-17T17:27:31.917Z,3.25
2023-01-17T17:30:36.155Z,3.14
2023-01-17T17:33:39.227Z,3.05
2023-01-17T17:36:42.343Z,2.98
2023-01-17T17:39:45.365Z,2.90
2023-01-17T17:42:48.252Z,2.84
2023-01-17T17:45:51.127Z,2.86
2023-01-17T17:48:53.926Z,2.90
2023-01-17T17:52:04.460Z,2.99
2023-01-17T17:55:07.841Z,3.09
2023-01-17T17:58:10.568Z,3.08
2023-01-17T18:01:13.559Z,3.05
2023-01-17T18:04:16.814Z,2.98
2023-01-17T18:07:20.024Z,2.88
2023-01-17T18:10:22.790Z,2.74
2023-01-17T18:13:25.659Z,2.58
2023-01-17T18:16:35.180Z,2.47
2023-01-17T18:19:38.849Z,2.36
2023-01-17T18:22:42.123Z,2.27
2023-01-17T18:25:45.262Z,2.21
2023-01-17T18:28:48.819Z,2.24
2023-01-17T18:31:53.223Z,2.50
2023-01-17T18:34:56.030Z,2.57
2023-01-17T18:37:59.048Z,2.52
2023-01-17T18:41:03.499Z,2.48
2023-01-17T18:44:09.829Z,2.45
2023-01-17T18:47:13.033Z,2.40
2023-01-17T18:50:16.035Z,2.28
2023-01-17T18:53:18.893Z,2.20
2023-01-17T18:56:24.594Z,2.09
2023-01-17T18:59:27.391Z,1.97
2023-01-17T19:02:30.175Z,1.86
2023-01-17T19:05:36.179Z,1.77
2023-01-17T19:08:39.744Z,1.82
2023-01-17T19:11:45.135Z,1.91
2023-01-17T19:14:47.942Z,1.92
2023-01-17T19:17:50.725Z,1.88
2023-01-17T19:20:53.958Z,1.77
2023-01-17T19:23:57.622Z,1.67
2023-01-17T19:27:00.342Z,1.58
2023-01-17T19:30:03.545Z,1.49
2023-01-17T19:33:06.328Z,1.41
2023-01-17T19:36:13.554Z,1.32
2023-01-17T19:39:17.439Z,1.23
2023-01-17T19:42:20.426Z,1.19
2023-01-17T19:45:23.159Z,1.26
2023-01-17T19:48:27.417Z,1.33
2023-01-17T19:51:30.455Z,1.40
2023-01-17T19:54:33.538Z,1.47
2023-01-17T19:57:37.353Z,1.46
2023-01-17T20:00:46.470Z,1.41
2023-01-17T20:03:52.194Z,1.32
2023-01-17T20:06:55.124Z,1.26
2023-01-17T20:09:58.052Z,1.15
2023-01-17T20:13:00.818Z,1.04
2023-01-17T20:16:06.641Z,0.94
2023-01-17T20:19:09.418Z,0.84
2023-01-17T20:22:12.391Z,0.87
2023-01-17T20:25:15.254Z,0.92
2023-01-17T20:28:18.030Z,0.94
2023-01-17T20:31:23.316Z,0.98
2023-01-17T20:34:26.273Z,0.99
2023-01-17T20:37:29.039Z,0.98
2023-01-17T20:40:31.965Z,0.91
2023-01-17T20:43:35.059Z,0.79
2023-01-17T20:46:41.308Z,0.68
2023-01-17T20:49:44.301Z,0.60
2023-01-17T20:52:48.462Z,0.55
2023-01-17T20:55:56.699Z,0.52
2023-01-17T20:59:00.028Z,0.62
2023-01-17T21:02:03.041Z,0.76
2023-01-17T21:05:06.964Z,0.91
2023-01-17T21:08:09.676Z,1.03
2023-01-17T21:11:15.281Z,1.05
2023-01-17T21:14:19.996Z,1.02
2023-01-17T21:17:22.869Z,0.95
2023-01-17T21:20:29.032Z,0.86
2023-01-17T21:23:31.797Z,0.73
2023-01-17T21:26:34.935Z,0.62
2023-01-17T21:29:37.685Z,0.52
2023-01-17T21:32:40.442Z,0.46
2023-01-17T21:35:44.027Z,0.51
2023-01-17T21:38:52.586Z,0.62
2023-01-17T21:41:55.319Z,0.68
2023-01-17T21:44:58.118Z,0.75
2023-01-17T21:48:01.615Z,0.78
2023-01-17T21:51:08.721Z,0.77
2023-01-17T21:54:11.595Z,0.70
2023-01-17T21:57:36.401Z,0.56
2023-01-17T22:00:43.151Z,0.47
2023-01-17T22:03:48.451Z,0.42
2023-01-17T22:06:51.576Z,0.36
2023-01-17T22:09:59.102Z,0.32
2023-01-17T22:13:01.930Z,0.38
2023-01-17T22:16:08.663Z,0.49
2023-01-17T22:19:11.549Z,0.59
2023-01-17T22:22:14.302Z,0.70
2023-01-17T22:25:17.128Z,0.80
2023-01-17T22:28:19.896Z,0.83
2023-01-17T22:31:25.101Z,0.84
2023-01-17T22:34:27.932Z,0.84
2023-01-17T22:37:30.647Z,0.83
2023-01-17T22:40:36.181Z,0.82
2023-01-17T22:43:41.463Z,0.78
2023-01-17T22:46:44.430Z,0.88
2023-01-17T22:49:47.233Z,0.96
2023-01-17T22:52:50.401Z,1.01
2023-01-17T22:56:03.397Z,1.07
2023-01-17T22:59:11.449Z,1.16
2023-01-17T23:02:18.370Z,1.14
2023-01-17T23:05:24.406Z,1.10
2023-01-17T23:08:27.198Z,1.04
2023-01-17T23:11:38.879Z,1.01
2023-01-17T23:15:00.520Z,0.93
2023-01-17T23:18:21.890Z,0.84
2023-01-17T23:21:44.720Z,0.78
2023-01-17T23:24:50.241Z,0.89
2023-01-17T23:28:11.439Z,1.02
2023-01-17T23:31:14.245Z,1.15
2023-01-17T23:34:19.856Z,1.24
2023-01-17T23:37:47.112Z,1.25
2023-01-17T23:41:09.851Z,1.25
2023-01-17T23:44:12.606Z,1.19
2023-01-17T23:47:15.404Z,1.11
2023-01-17T23:50:18.238Z,1.01
2023-01-17T23:53:24.043Z,0.91
2023-01-17T23:56:26.797Z,0.87
2023-01-17T23:59:29.582Z,0.94
